createdAt,value
2019-01-18T00:01:13.133Z,3.30
2019-01-18T00:03:42.601Z,3.40
2019-01-18T00:06:12.061Z,3.40
2019-01-18T00:08:41.515Z,3.40
2019-01-18T00:11:11.211Z,3.40
2019-01-18T00:13:40.678Z,3.30
2019-01-18T00:16:11.089Z,3.20
2019-01-18T00:18:40.588Z,3.30
2019-01-18T00:21:10.009Z,3.30
2019-01-18T00:23:39.459Z,3.40
2019-01-18T00:26:08.965Z,3.30
2019-01-18T00:28:38.444Z,3.40
2019-01-18T00:31:07.930Z,3.60
2019-01-18T00:33:37.499Z,3.70
2019-01-18T00:36:06.929Z,3.70
2019-01-18T00:38:36.372Z,3.80
2019-01-18T00:41:05.886Z,3.80
2019-01-18T00:43:35.345Z,3.70
2019-01-18T00:46:04.877Z,3.80
2019-01-18T00:48:34.326Z,3.90
2019-01-18T00:51:03.888Z,3.70
2019-01-18T00:53:33.350Z,3.90
2019-01-18T00:56:02.822Z,3.80
2019-01-18T00:58:32.227Z,3.90
2019-01-18T01:01:01.659Z,3.90
2019-01-18T01:03:31.065Z,3.90
2019-01-18T01:06:00.498Z,4.00
2019-01-18T01:08:29.950Z,4.00
2019-01-18T01:10:59.352Z,3.90
2019-01-18T01:13:28.796Z,4.00
2019-01-18T01:15:58.232Z,3.80
2019-01-18T01:18:27.758Z,4.00
2019-01-18T01:20:57.172Z,3.90
2019-01-18T01:23:26.580Z,4.00
2019-01-18T01:25:56.032Z,4.10
2019-01-18T01:28:25.534Z,4.20
2019-01-18T01:30:54.970Z,4.00
2019-01-18T01:33:24.400Z,4.00
2019-01-18T01:35:53.879Z,4.00
2019-01-18T01:38:23.310Z,4.10
2019-01-18T01:40:52.738Z,4.10
2019-01-18T01:43:22.210Z,4.20
2019-01-18T01:45:51.719Z,4.10
2019-01-18T01:48:21.237Z,4.20
2019-01-18T01:50:50.630Z,4.20
2019-01-18T01:53:19.984Z,4.20
2019-01-18T01:55:49.488Z,4.30
2019-01-18T01:58:19.172Z,4.40
2019-01-18T02:00:48.623Z,4.40
2019-01-18T02:03:18.024Z,4.30
2019-01-18T02:05:47.465Z,4.40
2019-01-18T02:08:16.930Z,4.60
2019-01-18T02:10:46.419Z,4.40
2019-01-18T02:13:15.861Z,4.60
2019-01-18T02:15:45.306Z,4.80
2019-01-18T02:18:14.763Z,4.80
2019-01-18T02:20:45.382Z,4.90
2019-01-18T02:23:14.857Z,4.90
2019-01-18T02:25:44.331Z,5.00
2019-01-18T02:28:13.730Z,5.00
2019-01-18T02:30:43.156Z,5.10
2019-01-18T02:33:12.622Z,5.10
2019-01-18T02:35:42.059Z,5.10
2019-01-18T02:38:11.477Z,5.00
2019-01-18T02:40:40.921Z,5.00
2019-01-18T02:43:10.326Z,5.10
2019-01-18T02:45:39.735Z,5.10
2019-01-18T02:48:09.295Z,5.10
2019-01-18T02:50:38.749Z,5.00
2019-01-18T02:53:08.175Z,5.00
2019-01-18T02:55:37.662Z,4.90
2019-01-18T02:58:07.157Z,4.90
2019-01-18T03:00:36.627Z,4.80
2019-01-18T03:03:06.214Z,4.80
2019-01-18T03:05:35.657Z,4.80
2019-01-18T03:08:05.345Z,4.80
2019-01-18T03:10:35.027Z,4.80
2019-01-18T03:13:04.483Z,4.80
2019-01-18T03:15:33.905Z,4.70
2019-01-18T03:18:03.360Z,4.70
2019-01-18T03:20:32.715Z,4.70
2019-01-18T03:23:02.109Z,4.70
2019-01-18T03:25:31.566Z,4.60
2019-01-18T03:28:00.886Z,4.40
2019-01-18T03:30:30.329Z,4.30
2019-01-18T03:32:59.731Z,4.30
2019-01-18T03:35:29.197Z,3.90
2019-01-18T03:37:58.600Z,3.70
2019-01-18T03:40:28.027Z,3.50
2019-01-18T03:42:57.485Z,3.50
2019-01-18T03:45:26.902Z,3.50
2019-01-18T03:47:56.314Z,3.50
2019-01-18T03:50:27.113Z,3.40
2019-01-18T03:52:56.597Z,3.40
2019-01-18T03:55:25.985Z,3.40
2019-01-18T03:57:55.499Z,3.30
2019-01-18T04:00:27.123Z,3.30
2019-01-18T04:02:56.614Z,3.30
2019-01-18T04:05:26.039Z,3.30
2019-01-18T04:07:55.480Z,3.30
2019-01-18T04:10:24.896Z,3.30
2019-01-18T04:12:54.356Z,3.20
2019-01-18T04:15:24.425Z,3.20
2019-01-18T04:17:54.220Z,3.10
2019-01-18T04:20:23.877Z,3.10
2019-01-18T04:22:53.268Z,3.00
2019-01-18T04:25:26.558Z,2.90
2019-01-18T04:27:56.074Z,2.90
2019-01-18T04:30:33.023Z,2.90
2019-01-18T04:32:56.621Z,2.80
2019-01-18T04:35:26.042Z,2.80
2019-01-18T04:37:55.474Z,2.70
2019-01-18T04:40:26.167Z,2.80
2019-01-18T04:42:55.766Z,2.80
2019-01-18T04:45:25.179Z,2.80
2019-01-18T04:47:55.075Z,2.80
2019-01-18T04:50:26.028Z,2.80
2019-01-18T04:52:55.457Z,2.80
2019-01-18T04:55:24.867Z,2.80
2019-01-18T04:57:54.294Z,2.80
2019-01-18T05:00:25.738Z,2.80
2019-01-18T05:02:55.134Z,2.80
2019-01-18T05:05:24.700Z,2.80
2019-01-18T05:07:54.257Z,2.90
2019-01-18T05:10:24.821Z,2.90
2019-01-18T05:12:54.247Z,2.90
2019-01-18T05:15:25.900Z,2.90
2019-01-18T05:17:55.333Z,2.90
2019-01-18T05:20:24.836Z,2.90
2019-01-18T05:22:54.296Z,2.80
2019-01-18T05:25:23.701Z,2.80
2019-01-18T05:27:53.180Z,2.80
2019-01-18T05:30:27.141Z,2.80
2019-01-18T05:32:57.085Z,2.80
2019-01-18T05:35:26.578Z,3.00
2019-01-18T05:37:56.051Z,3.00
2019-01-18T05:40:25.467Z,3.00
2019-01-18T05:42:54.955Z,2.90
2019-01-18T05:45:24.641Z,2.90
2019-01-18T05:47:54.103Z,2.90
2019-01-18T05:50:25.663Z,2.60
2019-01-18T05:52:55.383Z,2.50
2019-01-18T05:55:24.797Z,2.50
2019-01-18T05:57:54.233Z,2.50
2019-01-18T06:00:34.361Z,2.50
2019-01-18T06:03:03.807Z,2.50
2019-01-18T06:05:34.881Z,2.50
2019-01-18T06:08:04.379Z,2.50
2019-01-18T06:10:33.794Z,2.50
2019-01-18T06:13:03.259Z,2.50
2019-01-18T06:15:32.705Z,2.50
2019-01-18T06:18:02.137Z,2.40
2019-01-18T06:20:31.715Z,2.40
2019-01-18T06:23:01.138Z,2.30
2019-01-18T06:25:30.547Z,2.10
2019-01-18T06:28:00.097Z,2.10
2019-01-18T06:30:29.671Z,2.20
2019-01-18T06:32:59.318Z,2.20
2019-01-18T06:35:28.618Z,2.20
2019-01-18T06:37:58.092Z,2.10
2019-01-18T06:40:27.533Z,1.90
2019-01-18T06:42:57.068Z,2.00
2019-01-18T06:45:27.329Z,2.10
2019-01-18T06:47:56.818Z,2.00
2019-01-18T06:50:26.235Z,1.80
2019-01-18T06:52:55.631Z,1.90
2019-01-18T06:55:25.085Z,1.90
2019-01-18T06:57:54.684Z,1.80
2019-01-18T07:00:26.542Z,1.90
2019-01-18T07:02:56.134Z,1.90
2019-01-18T07:05:25.554Z,1.90
2019-01-18T07:07:55.102Z,2.00
2019-01-18T07:10:24.903Z,2.10
2019-01-18T07:12:54.363Z,2.10
2019-01-18T07:15:23.882Z,2.10
2019-01-18T07:17:53.374Z,2.10
2019-01-18T07:20:22.974Z,2.10
2019-01-18T07:22:52.438Z,2.20
2019-01-18T07:25:32.028Z,2.20
2019-01-18T07:28:01.459Z,2.20
2019-01-18T07:30:36.158Z,2.20
2019-01-18T07:33:07.594Z,2.20
2019-01-18T07:35:37.040Z,2.30
2019-01-18T07:38:06.531Z,2.20
2019-01-18T07:40:36.302Z,2.20
2019-01-18T07:43:06.027Z,2.30
2019-01-18T07:45:35.623Z,2.30
2019-01-18T07:48:05.322Z,2.20
2019-01-18T07:50:34.720Z,2.30
2019-01-18T07:53:04.573Z,2.20
2019-01-18T07:55:34.098Z,2.20
2019-01-18T07:58:03.548Z,2.20
2019-01-18T08:00:32.983Z,2.20
2019-01-18T08:03:02.491Z,2.20
2019-01-18T08:05:32.859Z,2.20
2019-01-18T08:08:03.193Z,2.20
2019-01-18T08:10:32.795Z,2.10
2019-01-18T08:13:02.366Z,2.00
2019-01-18T08:15:31.833Z,2.00
2019-01-18T08:18:01.187Z,1.90
2019-01-18T08:20:31.810Z,1.90
2019-01-18T08:23:02.350Z,2.00
2019-01-18T08:25:31.801Z,2.00
2019-01-18T08:28:01.929Z,2.10
2019-01-18T08:30:31.931Z,2.20
2019-01-18T08:33:01.353Z,2.50
2019-01-18T08:35:31.548Z,2.40
2019-01-18T08:38:01.174Z,2.20
2019-01-18T08:40:38.687Z,2.10
2019-01-18T08:43:13.260Z,2.00
2019-01-18T08:45:45.579Z,1.90
2019-01-18T08:48:15.108Z,1.90
2019-01-18T08:50:44.839Z,1.90
2019-01-18T08:53:14.260Z,2.00
2019-01-18T08:56:18.181Z,2.00
2019-01-18T08:58:47.599Z,2.20
2019-01-18T09:01:17.004Z,2.00
2019-01-18T09:03:46.449Z,1.90
2019-01-18T09:06:15.860Z,1.70
2019-01-18T09:08:45.316Z,1.70
2019-01-18T09:11:14.685Z,1.70
2019-01-18T09:13:44.185Z,1.70
2019-01-18T09:16:13.598Z,1.70
2019-01-18T09:18:43.003Z,1.70
2019-01-18T09:21:12.525Z,1.80
2019-01-18T09:23:42.023Z,1.90
2019-01-18T09:26:11.444Z,1.90
2019-01-18T09:28:41.012Z,1.80
2019-01-18T09:31:10.651Z,1.70
2019-01-18T09:33:40.017Z,1.70
2019-01-18T09:36:09.692Z,1.70
2019-01-18T09:38:39.104Z,1.70
2019-01-18T09:41:08.523Z,1.70
2019-01-18T09:43:37.980Z,1.60
2019-01-18T09:46:07.430Z,1.70
2019-01-18T09:48:36.760Z,1.70
2019-01-18T09:51:06.215Z,1.70
2019-01-18T09:53:35.660Z,1.70
2019-01-18T09:56:05.370Z,1.80
2019-01-18T09:58:34.870Z,1.70
2019-01-18T10:01:04.488Z,1.70
2019-01-18T10:03:34.102Z,1.70
2019-01-18T10:06:03.630Z,1.70
2019-01-18T10:08:33.090Z,1.70
2019-01-18T10:11:02.467Z,1.80
2019-01-18T10:13:32.077Z,1.80
2019-01-18T10:16:01.551Z,1.60
2019-01-18T10:18:31.000Z,1.50
2019-01-18T10:21:00.428Z,1.50
2019-01-18T10:23:29.878Z,1.50
2019-01-18T10:25:59.271Z,1.60
2019-01-18T10:28:28.690Z,1.70
2019-01-18T10:30:58.100Z,1.60
2019-01-18T10:33:27.564Z,1.40
2019-01-18T10:35:57.037Z,1.20
2019-01-18T10:38:26.470Z,1.10
2019-01-18T10:40:55.928Z,1.20
2019-01-18T10:43:25.358Z,1.10
2019-01-18T10:45:54.835Z,1.10
2019-01-18T10:48:24.304Z,1.10
2019-01-18T10:50:53.749Z,1.10
2019-01-18T10:53:23.261Z,1.10
2019-01-18T10:55:52.719Z,0.90
2019-01-18T10:58:22.188Z,0.90
2019-01-18T11:00:51.488Z,0.70
2019-01-18T11:03:20.915Z,0.80
2019-01-18T11:05:50.375Z,0.70
2019-01-18T11:08:19.820Z,0.70
2019-01-18T11:10:49.234Z,0.80
2019-01-18T11:13:18.698Z,0.70
2019-01-18T11:15:48.130Z,0.70
2019-01-18T11:18:18.551Z,0.70
2019-01-18T11:20:54.521Z,0.70
2019-01-18T11:23:23.999Z,0.70
2019-01-18T11:25:53.567Z,0.70
2019-01-18T11:28:23.074Z,0.70
2019-01-18T11:30:52.523Z,0.80
2019-01-18T11:33:22.014Z,0.80
2019-01-18T11:35:51.422Z,1.00
2019-01-18T11:38:21.001Z,1.00
2019-01-18T11:40:50.424Z,0.80
2019-01-18T11:43:19.912Z,0.70
2019-01-18T11:45:49.351Z,0.70
2019-01-18T11:48:18.794Z,0.90
2019-01-18T11:50:48.495Z,1.00
2019-01-18T11:53:17.977Z,1.00
2019-01-18T11:55:47.338Z,1.10
2019-01-18T11:58:16.773Z,1.00
2019-01-18T12:00:46.167Z,1.00
2019-01-18T12:03:15.623Z,1.00
2019-01-18T12:05:45.223Z,0.90
2019-01-18T12:08:14.718Z,0.90
2019-01-18T12:10:44.134Z,0.90
2019-01-18T12:13:13.565Z,0.90
2019-01-18T12:15:43.010Z,1.00
2019-01-18T12:18:12.492Z,1.20
2019-01-18T12:20:41.842Z,1.50
2019-01-18T12:23:11.251Z,1.30
2019-01-18T12:25:40.703Z,1.20
2019-01-18T12:28:10.160Z,1.10
2019-01-18T12:30:39.652Z,1.10
2019-01-18T12:33:09.142Z,1.00
2019-01-18T12:35:38.600Z,1.00
2019-01-18T12:38:08.066Z,0.90
2019-01-18T12:40:37.494Z,0.90
2019-01-18T12:43:07.020Z,0.80
2019-01-18T12:45:36.476Z,0.80
2019-01-18T12:48:06.062Z,0.80
2019-01-18T12:50:40.466Z,1.00
2019-01-18T12:53:09.974Z,1.40
2019-01-18T12:55:39.841Z,2.20
2019-01-18T12:58:09.631Z,1.90
2019-01-18T13:00:39.237Z,1.80
2019-01-18T13:03:09.524Z,3.20
2019-01-18T13:05:44.946Z,3.30
2019-01-18T13:08:14.615Z,2.50
2019-01-18T13:10:44.178Z,1.80
2019-01-18T13:13:13.771Z,1.30
2019-01-18T13:16:03.473Z,1.10
2019-01-18T13:18:33.523Z,1.30
2019-01-18T13:21:03.023Z,3.00
2019-01-18T13:23:32.434Z,2.40
2019-01-18T13:26:01.935Z,2.80
2019-01-18T13:28:31.387Z,4.90
2019-01-18T13:31:00.840Z,5.20
2019-01-18T13:33:30.288Z,4.40
2019-01-18T13:35:59.790Z,2.90
2019-01-18T13:38:29.255Z,1.70
2019-01-18T13:40:58.753Z,1.20
2019-01-18T13:43:28.229Z,0.70
2019-01-18T13:45:57.706Z,0.60
2019-01-18T13:48:27.235Z,0.80
2019-01-18T13:50:56.677Z,1.30
2019-01-18T13:53:26.116Z,1.70
2019-01-18T13:55:55.817Z,1.10
2019-01-18T13:58:25.365Z,0.60
2019-01-18T14:00:54.879Z,0.40
2019-01-18T14:03:24.408Z,0.20
2019-01-18T14:05:53.885Z,0.10
2019-01-18T14:08:23.589Z,0.10
2019-01-18T14:10:53.246Z,0.00
2019-01-18T14:13:22.770Z,-0.20
2019-01-18T14:15:52.273Z,-0.20
2019-01-18T14:18:21.793Z,-0.20
2019-01-18T14:20:51.331Z,-0.30
2019-01-18T14:23:20.939Z,-0.40
2019-01-18T14:25:50.574Z,-0.50
2019-01-18T14:28:20.176Z,-0.50
2019-01-18T14:30:49.753Z,-0.60
2019-01-18T14:33:19.408Z,-0.50
2019-01-18T14:35:49.030Z,-0.60
2019-01-18T14:38:24.948Z,-0.70
2019-01-18T14:40:49.659Z,-0.80
2019-01-18T14:43:19.195Z,-0.80
2019-01-18T14:45:48.666Z,-0.90
2019-01-18T14:48:18.176Z,-0.70
2019-01-18T14:50:47.664Z,-0.80
2019-01-18T14:53:17.154Z,-0.90
2019-01-18T14:55:47.407Z,-1.10
2019-01-18T14:58:17.009Z,-1.00
2019-01-18T15:00:46.454Z,-1.00
2019-01-18T15:03:16.600Z,-1.10
2019-01-18T15:05:46.056Z,-1.10
2019-01-18T15:08:15.508Z,-1.00
2019-01-18T15:10:45.046Z,-1.00
2019-01-18T15:13:17.537Z,-0.90
2019-01-18T15:15:47.055Z,-0.90
2019-01-18T15:18:17.613Z,-0.80
2019-01-18T15:20:47.219Z,-0.70
2019-01-18T15:23:16.870Z,-0.60
2019-01-18T15:25:46.573Z,-0.60
2019-01-18T15:28:16.025Z,-0.60
2019-01-18T15:30:45.588Z,-0.50
2019-01-18T15:33:15.043Z,-0.50
2019-01-18T15:35:44.574Z,-0.50
2019-01-18T15:38:15.256Z,-0.40
2019-01-18T15:40:47.661Z,-0.50
2019-01-18T15:43:19.559Z,-0.60
2019-01-18T15:45:49.065Z,-0.60
2019-01-18T15:48:18.535Z,-0.50
2019-01-18T15:50:48.026Z,-0.50
2019-01-18T15:53:17.665Z,-0.50
2019-01-18T15:55:48.779Z,-0.50
2019-01-18T15:58:18.255Z,-0.50
2019-01-18T16:00:47.757Z,-0.50
2019-01-18T16:03:21.055Z,-0.70
2019-01-18T16:05:50.665Z,-0.70
2019-01-18T16:08:20.248Z,-0.70
2019-01-18T16:10:49.703Z,-0.80
2019-01-18T16:13:19.114Z,-0.80
2019-01-18T16:15:58.144Z,-0.80
2019-01-18T16:18:27.740Z,-0.80
2019-01-18T16:20:57.502Z,-0.80
2019-01-18T16:23:27.184Z,-0.80
2019-01-18T16:25:56.598Z,-0.90
2019-01-18T16:28:26.293Z,-0.90
2019-01-18T16:30:55.909Z,-0.90
2019-01-18T16:33:25.746Z,-0.90
2019-01-18T16:36:14.367Z,-0.90
2019-01-18T16:38:43.852Z,-0.90
2019-01-18T16:41:13.319Z,-1.00
2019-01-18T16:43:45.994Z,-1.20
2019-01-18T16:46:15.490Z,-1.10
2019-01-18T16:48:45.458Z,-1.10
2019-01-18T16:51:15.153Z,-1.20
2019-01-18T16:53:44.670Z,-1.20
2019-01-18T16:56:14.363Z,-1.00
2019-01-18T16:58:43.881Z,-1.00
2019-01-18T17:01:13.414Z,-1.00
2019-01-18T17:03:43.049Z,-1.00
2019-01-18T17:06:12.726Z,-0.80
2019-01-18T17:08:44.318Z,-0.90
2019-01-18T17:11:13.839Z,-0.70
2019-01-18T17:13:44.878Z,-0.60
2019-01-18T17:16:14.364Z,-0.70
2019-01-18T17:18:43.803Z,-0.80
2019-01-18T17:21:13.301Z,-0.70
2019-01-18T17:23:42.804Z,-0.60
2019-01-18T17:26:12.891Z,-0.50
2019-01-18T17:28:42.360Z,-0.60
2019-01-18T17:31:11.885Z,-0.50
2019-01-18T17:33:41.424Z,-0.50
2019-01-18T17:36:50.808Z,-0.50
2019-01-18T17:39:36.715Z,-0.40
2019-01-18T17:42:40.732Z,-0.50
2019-01-18T17:45:38.951Z,-0.60
2019-01-18T17:49:01.609Z,-0.50
2019-01-18T17:51:54.250Z,-0.50
2019-01-18T17:54:50.866Z,-0.70
2019-01-18T17:58:12.724Z,-1.10
2019-01-18T18:01:25.022Z,-1.30
2019-01-18T18:04:05.066Z,-1.60
2019-01-18T18:07:08.545Z,-1.20
2019-01-18T18:10:07.721Z,-1.10
2019-01-18T18:13:19.120Z,-1.10
2019-01-18T18:16:29.051Z,-1.10
2019-01-18T18:19:41.950Z,-1.10
2019-01-18T18:23:03.474Z,-1.10
2019-01-18T18:25:59.006Z,-1.20
2019-01-18T18:29:18.429Z,-1.10
2019-01-18T18:32:15.802Z,-1.10
2019-01-18T18:35:20.372Z,-1.20
2019-01-18T18:38:25.010Z,-1.00
2019-01-18T18:41:25.413Z,-1.20
2019-01-18T18:44:26.557Z,-1.20
2019-01-18T18:47:23.476Z,-1.10
2019-01-18T18:50:30.356Z,-1.10
2019-01-18T18:53:21.777Z,-1.00
2019-01-18T18:56:06.583Z,-1.00
2019-01-18T18:59:14.281Z,-0.90
2019-01-18T19:02:30.648Z,-0.90
2019-01-18T19:05:37.601Z,-0.80
2019-01-18T19:08:27.736Z,-0.80
2019-01-18T19:11:33.613Z,-0.80
2019-01-18T19:14:56.530Z,-0.70
2019-01-18T19:17:51.744Z,-0.70
2019-01-18T19:21:02.597Z,-0.70
2019-01-18T19:23:54.377Z,-0.70
2019-01-18T19:26:46.070Z,-0.70
2019-01-18T19:30:03.480Z,-0.70
2019-01-18T19:33:24.842Z,-0.70
2019-01-18T19:36:44.017Z,-0.80
2019-01-18T19:39:52.610Z,-1.00
2019-01-18T19:42:49.448Z,-1.00
2019-01-18T19:45:39.537Z,-1.00
2019-01-18T19:48:51.852Z,-1.10
2019-01-18T19:52:05.378Z,-1.20
2019-01-18T19:54:50.834Z,-1.30
2019-01-18T19:58:14.644Z,-1.10
2019-01-18T20:01:30.328Z,-1.10
2019-01-18T20:04:25.957Z,-1.10
2019-01-18T20:07:28.200Z,-1.20
2019-01-18T20:10:22.204Z,-1.20
2019-01-18T20:13:33.992Z,-1.20
2019-01-18T20:16:33.933Z,-1.20
2019-01-18T20:19:49.538Z,-1.30
2019-01-18T20:22:58.231Z,-1.30
2019-01-18T20:26:12.042Z,-1.30
2019-01-18T20:29:22.640Z,-1.30
2019-01-18T20:32:22.968Z,-1.20
2019-01-18T20:35:37.390Z,-1.30
2019-01-18T20:38:32.581Z,-1.40
2019-01-18T20:41:38.900Z,-1.40
2019-01-18T20:44:24.435Z,-1.40
2019-01-18T20:47:33.145Z,-1.50
2019-01-18T20:50:45.020Z,-1.30
2019-01-18T20:53:47.352Z,-1.30
2019-01-18T20:57:03.774Z,-1.40
2019-01-18T20:59:49.632Z,-1.30
2019-01-18T21:02:56.438Z,-1.30
2019-01-18T21:06:02.589Z,-1.30
2019-01-18T21:08:57.066Z,-1.20
2019-01-18T21:12:09.083Z,-1.20
2019-01-18T21:15:01.647Z,-1.20
2019-01-18T21:17:57.700Z,-1.20
2019-01-18T21:21:20.312Z,-1.10
2019-01-18T21:24:44.752Z,-1.10
2019-01-18T21:27:54.415Z,-1.10
2019-01-18T21:31:14.500Z,-1.00
2019-01-18T21:34:17.027Z,-1.00
2019-01-18T21:37:29.705Z,-1.00
2019-01-18T21:40:15.636Z,-1.00
2019-01-18T21:43:12.003Z,-1.00
2019-01-18T21:46:37.885Z,-0.90
2019-01-18T21:49:22.317Z,-0.90
2019-01-18T21:52:24.120Z,-0.90
2019-01-18T21:55:30.293Z,-0.90
2019-01-18T21:58:48.749Z,-1.00
2019-01-18T22:02:11.230Z,-1.00
2019-01-18T22:05:08.195Z,-1.00
2019-01-18T22:08:09.662Z,-1.00
2019-01-18T22:11:07.636Z,-1.00
2019-01-18T22:14:36.275Z,-1.00
2019-01-18T22:17:40.485Z,-1.00
2019-01-18T22:20:46.585Z,-1.00
2019-01-18T22:24:05.909Z,-0.90
2019-01-18T22:27:00.802Z,-1.00
2019-01-18T22:30:06.152Z,-1.20
2019-01-18T22:33:07.520Z,-1.40
2019-01-18T22:36:14.338Z,-1.40
2019-01-18T22:39:30.929Z,-1.40
2019-01-18T22:42:50.201Z,-1.50
2019-01-18T22:45:50.352Z,-1.70
2019-01-18T22:48:53.780Z,-1.90
2019-01-18T22:51:48.121Z,-1.90
2019-01-18T22:55:04.350Z,-1.90
2019-01-18T22:58:27.192Z,-2.00
2019-01-18T23:01:40.439Z,-2.10
2019-01-18T23:04:41.936Z,-2.20
2019-01-18T23:08:04.191Z,-2.30
2019-01-18T23:10:48.480Z,-2.20
2019-01-18T23:14:10.121Z,-2.20
2019-01-18T23:17:23.884Z,-2.10
2019-01-18T23:20:36.336Z,-2.10
2019-01-18T23:23:52.628Z,-2.30
2019-01-18T23:27:17.906Z,-2.30
2019-01-18T23:30:06.547Z,-2.20
2019-01-18T23:33:04.185Z,-2.10
2019-01-18T23:36:04.618Z,-2.20
2019-01-18T23:39:26.453Z,-2.10
2019-01-18T23:42:09.574Z,-2.00
2019-01-18T23:45:32.272Z,-2.10
2019-01-18T23:48:55.252Z,-2.00
2019-01-18T23:52:04.690Z,-2.00
2019-01-18T23:55:11.076Z,-2.10
2019-01-18T23:58:15.452Z,-2.10
